<?xml version="1.0" encoding="UTF-8" standalone="no" ?>
<gpx xmlns="http://www.topografix.com/GPX/1/1" xmlns:xsi="http://www.w3.org/2001/XMLSchema-instance" xsi:schemaLocation="http://www.topografix.com/GPX/1/1 http://www.topografix.com/GPX/1/1/gpx.xsd" version="1.1" creator="VisuGPX - https://www.visugpx.com">
  <metadata>
    <name>Lac de Puyvalador</name>
    <desc><![CDATA[#fait]]></desc>
  </metadata>
  <wpt lat="42.6312" lon="2.13206">
    <ele>1428</ele>
    <name><![CDATA[Parking Réal]]></name>
  </wpt>
  <wpt lat="42.64704" lon="2.12846">
    <ele>1429</ele>
    <name><![CDATA[Jonction avec GRP Tour du Capcir]]></name>
  </wpt>
  <wpt lat="42.64653" lon="2.11516">
    <ele>1452</ele>
    <name><![CDATA[D118, en face]]></name>
  </wpt>
  <wpt lat="42.6405" lon="2.11181">
    <ele>1437</ele>
    <name><![CDATA[Intersection, (Abandon GRP Tour du Capcir)]]></name>
  </wpt>
  <wpt lat="42.64074" lon="2.11416">
    <ele>1442</ele>
    <name><![CDATA[D118, en face]]></name>
  </wpt>
  <wpt lat="42.63212" lon="2.12975">
    <ele>1423</ele>
    <name><![CDATA[D32e. À gauche]]></name>
  </wpt>
  <wpt lat="42.63177" lon="2.13022">
    <ele>1423</ele>
    <name><![CDATA[D32e, à gauche . Pont de l']]></name>
  </wpt>
  <wpt lat="42.63119" lon="2.13206">
    <ele>1428</ele>
    <name><![CDATA[Parking Réal]]></name>
  </wpt>
  <trk>
    <name><![CDATA[Lac de Puyvalador]]></name>
    <trkseg>
      <trkpt lat="42.6312" lon="2.13206">
        <ele>1428</ele>
        <time>2021-07-24T11:49:27+02:00</time>
      </trkpt>
      <trkpt lat="42.63186" lon="2.13168">
        <ele>1427</ele>
        <time>2021-07-24T11:49:32+02:00</time>
      </trkpt>
      <trkpt lat="42.63327" lon="2.13107">
        <ele>1424</ele>
        <time>2021-07-24T11:49:37+02:00</time>
      </trkpt>
      <trkpt lat="42.63387" lon="2.13023">
        <ele>1423</ele>
        <time>2021-07-24T11:49:42+02:00</time>
      </trkpt>
      <trkpt lat="42.63458" lon="2.1305">
        <ele>1428</ele>
        <time>2021-07-24T11:49:47+02:00</time>
      </trkpt>
      <trkpt lat="42.63538" lon="2.12987">
        <ele>1427</ele>
        <time>2021-07-24T11:49:52+02:00</time>
      </trkpt>
      <trkpt lat="42.63617" lon="2.12944">
        <ele>1427</ele>
        <time>2021-07-24T11:49:57+02:00</time>
      </trkpt>
      <trkpt lat="42.63644" lon="2.12945">
        <ele>1428</ele>
        <time>2021-07-24T11:50:02+02:00</time>
      </trkpt>
      <trkpt lat="42.63692" lon="2.12973">
        <ele>1427</ele>
        <time>2021-07-24T11:50:07+02:00</time>
      </trkpt>
      <trkpt lat="42.63769" lon="2.12976">
        <ele>1431</ele>
        <time>2021-07-24T11:50:12+02:00</time>
      </trkpt>
      <trkpt lat="42.63826" lon="2.12951">
        <ele>1432</ele>
        <time>2021-07-24T11:50:17+02:00</time>
      </trkpt>
      <trkpt lat="42.63859" lon="2.12945">
        <ele>1433</ele>
        <time>2021-07-24T11:50:22+02:00</time>
      </trkpt>
      <trkpt lat="42.63927" lon="2.12972">
        <ele>1436</ele>
        <time>2021-07-24T11:50:27+02:00</time>
      </trkpt>
      <trkpt lat="42.63953" lon="2.13008">
        <ele>1437</ele>
        <time>2021-07-24T11:50:32+02:00</time>
      </trkpt>
      <trkpt lat="42.63964" lon="2.1307">
        <ele>1439</ele>
        <time>2021-07-24T11:50:37+02:00</time>
      </trkpt>
      <trkpt lat="42.63973" lon="2.13084">
        <ele>1437</ele>
        <time>2021-07-24T11:50:42+02:00</time>
      </trkpt>
      <trkpt lat="42.63988" lon="2.13092">
        <ele>1440</ele>
        <time>2021-07-24T11:50:47+02:00</time>
      </trkpt>
      <trkpt lat="42.64013" lon="2.1307">
        <ele>1439</ele>
        <time>2021-07-24T11:50:52+02:00</time>
      </trkpt>
      <trkpt lat="42.64047" lon="2.13069">
        <ele>1444</ele>
        <time>2021-07-24T11:50:57+02:00</time>
      </trkpt>
      <trkpt lat="42.64085" lon="2.13043">
        <ele>1447</ele>
        <time>2021-07-24T11:51:02+02:00</time>
      </trkpt>
      <trkpt lat="42.64127" lon="2.13049">
        <ele>1449</ele>
        <time>2021-07-24T11:51:07+02:00</time>
      </trkpt>
      <trkpt lat="42.64188" lon="2.13068">
        <ele>1447</ele>
        <time>2021-07-24T11:51:12+02:00</time>
      </trkpt>
      <trkpt lat="42.64211" lon="2.1303">
        <ele>1441</ele>
        <time>2021-07-24T11:51:17+02:00</time>
      </trkpt>
      <trkpt lat="42.6423" lon="2.13017">
        <ele>1441</ele>
        <time>2021-07-24T11:51:22+02:00</time>
      </trkpt>
      <trkpt lat="42.64306" lon="2.12986">
        <ele>1438</ele>
        <time>2021-07-24T11:51:27+02:00</time>
      </trkpt>
      <trkpt lat="42.64385" lon="2.12972">
        <ele>1437</ele>
        <time>2021-07-24T11:51:32+02:00</time>
      </trkpt>
      <trkpt lat="42.64414" lon="2.12934">
        <ele>1432</ele>
        <time>2021-07-24T11:51:37+02:00</time>
      </trkpt>
      <trkpt lat="42.64483" lon="2.12917">
        <ele>1431</ele>
        <time>2021-07-24T11:51:42+02:00</time>
      </trkpt>
      <trkpt lat="42.64519" lon="2.12907">
        <ele>1428</ele>
        <time>2021-07-24T11:51:47+02:00</time>
      </trkpt>
      <trkpt lat="42.64551" lon="2.12908">
        <ele>1428</ele>
        <time>2021-07-24T11:51:52+02:00</time>
      </trkpt>
      <trkpt lat="42.64597" lon="2.12874">
        <ele>1426</ele>
        <time>2021-07-24T11:51:57+02:00</time>
      </trkpt>
      <trkpt lat="42.64641" lon="2.1287">
        <ele>1428</ele>
        <time>2021-07-24T11:52:02+02:00</time>
      </trkpt>
      <trkpt lat="42.64673" lon="2.1285">
        <ele>1427</ele>
        <time>2021-07-24T11:52:07+02:00</time>
      </trkpt>
      <trkpt lat="42.64704" lon="2.12846">
        <ele>1429</ele>
        <time>2021-07-24T11:52:12+02:00</time>
      </trkpt>
      <trkpt lat="42.64731" lon="2.12834">
        <ele>1427</ele>
        <time>2021-07-24T11:52:17+02:00</time>
      </trkpt>
      <trkpt lat="42.64813" lon="2.12868">
        <ele>1427</ele>
        <time>2021-07-24T11:52:22+02:00</time>
      </trkpt>
      <trkpt lat="42.64828" lon="2.12856">
        <ele>1426</ele>
        <time>2021-07-24T11:52:27+02:00</time>
      </trkpt>
      <trkpt lat="42.64835" lon="2.12822">
        <ele>1424</ele>
        <time>2021-07-24T11:52:32+02:00</time>
      </trkpt>
      <trkpt lat="42.64811" lon="2.1275">
        <ele>1424</ele>
        <time>2021-07-24T11:52:37+02:00</time>
      </trkpt>
      <trkpt lat="42.64808" lon="2.12708">
        <ele>1426</ele>
        <time>2021-07-24T11:52:42+02:00</time>
      </trkpt>
      <trkpt lat="42.64817" lon="2.1266">
        <ele>1426</ele>
        <time>2021-07-24T11:52:47+02:00</time>
      </trkpt>
      <trkpt lat="42.64827" lon="2.12656">
        <ele>1426</ele>
        <time>2021-07-24T11:52:52+02:00</time>
      </trkpt>
      <trkpt lat="42.64822" lon="2.12633">
        <ele>1423</ele>
        <time>2021-07-24T11:52:57+02:00</time>
      </trkpt>
      <trkpt lat="42.64819" lon="2.12535">
        <ele>1417</ele>
        <time>2021-07-24T11:53:02+02:00</time>
      </trkpt>
      <trkpt lat="42.64835" lon="2.12436">
        <ele>1427</ele>
        <time>2021-07-24T11:53:07+02:00</time>
      </trkpt>
      <trkpt lat="42.64862" lon="2.1245">
        <ele>1429</ele>
        <time>2021-07-24T11:53:12+02:00</time>
      </trkpt>
      <trkpt lat="42.6488" lon="2.12442">
        <ele>1433</ele>
        <time>2021-07-24T11:53:17+02:00</time>
      </trkpt>
      <trkpt lat="42.64877" lon="2.12403">
        <ele>1440</ele>
        <time>2021-07-24T11:53:22+02:00</time>
      </trkpt>
      <trkpt lat="42.64864" lon="2.12428">
        <ele>1437</ele>
        <time>2021-07-24T11:53:27+02:00</time>
      </trkpt>
      <trkpt lat="42.64838" lon="2.12408">
        <ele>1437</ele>
        <time>2021-07-24T11:53:32+02:00</time>
      </trkpt>
      <trkpt lat="42.64773" lon="2.12297">
        <ele>1442</ele>
        <time>2021-07-24T11:53:37+02:00</time>
      </trkpt>
      <trkpt lat="42.64711" lon="2.12225">
        <ele>1443</ele>
        <time>2021-07-24T11:53:42+02:00</time>
      </trkpt>
      <trkpt lat="42.64685" lon="2.12153">
        <ele>1452</ele>
        <time>2021-07-24T11:53:47+02:00</time>
      </trkpt>
      <trkpt lat="42.64673" lon="2.12108">
        <ele>1460</ele>
        <time>2021-07-24T11:53:52+02:00</time>
      </trkpt>
      <trkpt lat="42.64653" lon="2.12087">
        <ele>1461</ele>
        <time>2021-07-24T11:53:57+02:00</time>
      </trkpt>
      <trkpt lat="42.64658" lon="2.12015">
        <ele>1466</ele>
        <time>2021-07-24T11:54:02+02:00</time>
      </trkpt>
      <trkpt lat="42.64661" lon="2.11939">
        <ele>1462</ele>
        <time>2021-07-24T11:54:07+02:00</time>
      </trkpt>
      <trkpt lat="42.64673" lon="2.11918">
        <ele>1461</ele>
        <time>2021-07-24T11:54:12+02:00</time>
      </trkpt>
      <trkpt lat="42.64661" lon="2.1183">
        <ele>1458</ele>
        <time>2021-07-24T11:54:17+02:00</time>
      </trkpt>
      <trkpt lat="42.64659" lon="2.11724">
        <ele>1456</ele>
        <time>2021-07-24T11:54:22+02:00</time>
      </trkpt>
      <trkpt lat="42.64636" lon="2.11612">
        <ele>1456</ele>
        <time>2021-07-24T11:54:27+02:00</time>
      </trkpt>
      <trkpt lat="42.64653" lon="2.11516">
        <ele>1452</ele>
        <time>2021-07-24T11:54:32+02:00</time>
      </trkpt>
      <trkpt lat="42.64637" lon="2.11492">
        <ele>1452</ele>
        <time>2021-07-24T11:54:37+02:00</time>
      </trkpt>
      <trkpt lat="42.64648" lon="2.11465">
        <ele>1452</ele>
        <time>2021-07-24T11:54:42+02:00</time>
      </trkpt>
      <trkpt lat="42.6464" lon="2.11355">
        <ele>1456</ele>
        <time>2021-07-24T11:54:47+02:00</time>
      </trkpt>
      <trkpt lat="42.64608" lon="2.11242">
        <ele>1459</ele>
        <time>2021-07-24T11:54:52+02:00</time>
      </trkpt>
      <trkpt lat="42.64551" lon="2.11117">
        <ele>1459</ele>
        <time>2021-07-24T11:54:57+02:00</time>
      </trkpt>
      <trkpt lat="42.64525" lon="2.11035">
        <ele>1456</ele>
        <time>2021-07-24T11:55:02+02:00</time>
      </trkpt>
      <trkpt lat="42.64501" lon="2.1101">
        <ele>1453</ele>
        <time>2021-07-24T11:55:07+02:00</time>
      </trkpt>
      <trkpt lat="42.64475" lon="2.11005">
        <ele>1450</ele>
        <time>2021-07-24T11:55:12+02:00</time>
      </trkpt>
      <trkpt lat="42.64427" lon="2.11014">
        <ele>1449</ele>
        <time>2021-07-24T11:55:17+02:00</time>
      </trkpt>
      <trkpt lat="42.64384" lon="2.11">
        <ele>1442</ele>
        <time>2021-07-24T11:55:22+02:00</time>
      </trkpt>
      <trkpt lat="42.64345" lon="2.11018">
        <ele>1440</ele>
        <time>2021-07-24T11:55:27+02:00</time>
      </trkpt>
      <trkpt lat="42.64315" lon="2.11047">
        <ele>1440</ele>
        <time>2021-07-24T11:55:32+02:00</time>
      </trkpt>
      <trkpt lat="42.64206" lon="2.11086">
        <ele>1441</ele>
        <time>2021-07-24T11:55:37+02:00</time>
      </trkpt>
      <trkpt lat="42.64132" lon="2.11109">
        <ele>1439</ele>
        <time>2021-07-24T11:55:42+02:00</time>
      </trkpt>
      <trkpt lat="42.64078" lon="2.11107">
        <ele>1431</ele>
        <time>2021-07-24T11:55:47+02:00</time>
      </trkpt>
      <trkpt lat="42.6405" lon="2.11181">
        <ele>1437</ele>
        <time>2021-07-24T11:55:52+02:00</time>
      </trkpt>
      <trkpt lat="42.64127" lon="2.11365">
        <ele>1435</ele>
        <time>2021-07-24T11:55:57+02:00</time>
      </trkpt>
      <trkpt lat="42.64074" lon="2.11416">
        <ele>1442</ele>
        <time>2021-07-24T11:56:02+02:00</time>
      </trkpt>
      <trkpt lat="42.64111" lon="2.11465">
        <ele>1439</ele>
        <time>2021-07-24T11:56:07+02:00</time>
      </trkpt>
      <trkpt lat="42.64145" lon="2.11519">
        <ele>1432</ele>
        <time>2021-07-24T11:56:12+02:00</time>
      </trkpt>
      <trkpt lat="42.64197" lon="2.118">
        <ele>1428</ele>
        <time>2021-07-24T11:56:17+02:00</time>
      </trkpt>
      <trkpt lat="42.64198" lon="2.11948">
        <ele>1424</ele>
        <time>2021-07-24T11:56:22+02:00</time>
      </trkpt>
      <trkpt lat="42.64222" lon="2.12006">
        <ele>1423</ele>
        <time>2021-07-24T11:56:27+02:00</time>
      </trkpt>
      <trkpt lat="42.64229" lon="2.12099">
        <ele>1423</ele>
        <time>2021-07-24T11:56:32+02:00</time>
      </trkpt>
      <trkpt lat="42.6415" lon="2.12206">
        <ele>1423</ele>
        <time>2021-07-24T11:56:37+02:00</time>
      </trkpt>
      <trkpt lat="42.64099" lon="2.12251">
        <ele>1423</ele>
        <time>2021-07-24T11:56:42+02:00</time>
      </trkpt>
      <trkpt lat="42.64018" lon="2.12394">
        <ele>1423</ele>
        <time>2021-07-24T11:56:47+02:00</time>
      </trkpt>
      <trkpt lat="42.63979" lon="2.12415">
        <ele>1423</ele>
        <time>2021-07-24T11:56:52+02:00</time>
      </trkpt>
      <trkpt lat="42.63939" lon="2.12424">
        <ele>1423</ele>
        <time>2021-07-24T11:56:57+02:00</time>
      </trkpt>
      <trkpt lat="42.63794" lon="2.12343">
        <ele>1423</ele>
        <time>2021-07-24T11:57:02+02:00</time>
      </trkpt>
      <trkpt lat="42.63764" lon="2.12365">
        <ele>1423</ele>
        <time>2021-07-24T11:57:07+02:00</time>
      </trkpt>
      <trkpt lat="42.63727" lon="2.12386">
        <ele>1424</ele>
        <time>2021-07-24T11:57:12+02:00</time>
      </trkpt>
      <trkpt lat="42.63696" lon="2.12446">
        <ele>1423</ele>
        <time>2021-07-24T11:57:17+02:00</time>
      </trkpt>
      <trkpt lat="42.63546" lon="2.12449">
        <ele>1423</ele>
        <time>2021-07-24T11:57:22+02:00</time>
      </trkpt>
      <trkpt lat="42.63212" lon="2.12975">
        <ele>1423</ele>
        <time>2021-07-24T11:57:27+02:00</time>
      </trkpt>
      <trkpt lat="42.6318" lon="2.13002">
        <ele>1423</ele>
        <time>2021-07-24T11:57:32+02:00</time>
      </trkpt>
      <trkpt lat="42.63177" lon="2.13022">
        <ele>1423</ele>
        <time>2021-07-24T11:57:37+02:00</time>
      </trkpt>
      <trkpt lat="42.63187" lon="2.13066">
        <ele>1423</ele>
        <time>2021-07-24T11:57:42+02:00</time>
      </trkpt>
      <trkpt lat="42.63193" lon="2.1311">
        <ele>1425</ele>
        <time>2021-07-24T11:57:47+02:00</time>
      </trkpt>
      <trkpt lat="42.63119" lon="2.13206">
        <ele>1428</ele>
        <time>2021-07-24T11:57:52+02:00</time>
      </trkpt>
    </trkseg>
  </trk>
</gpx>